Paracambi, Brazil
Current Conditions -  °F | °C
As of 4:00 PM on Tuesday 21 Oct 2014 (Local Time) from SBSC Reporting Station
Light Rain Light Rain  
Wind Chill: 68°   Ceiling: 3000
Heat Index: 68°   Visibility: 3mi
Dew Point: 63°   Wind: 9mph
Humidity: 83%   Direction: 190°S
Pressure: 30.12"   Gusts: NA
Location:  22.61°S, 43.71°W
Report Text: SBSC 211800Z 19008KT 5000 -RA SCT020 OVC030 20/17 Q1020
Loading
Personal Weather Stations






























Interactive Weather Map
Tropical Storm Tracking
New forecast layout! Learn more

10-Day Weather Forecast

Advertisements
Track Severe Weather on mobile